Sichem Hawk — 9HSE9 — position and weather

sailwx.info

Track history (hours):
 
Tides and Currents Weather Stations Pressure Air Temp Water Temp Dewpoint Dewpoint Depression Visibility Wind Speed Wind Dir Waves Ship Positions

Sichem Hawk

Last reported at 2014-Jul-31 15:21 UTC. Time now 2014-Jul-31 15:41 UTC.
Position N 29°45' W 095°06'.

Length 170 m; draft 9.5 m.

Type: Ship. MMSI: 249445000.

Date/timePositionNaut miles runAvg speedWind from/ knotsBaromVisibWave heightAir tempDewpointWater temp
2014-Jul-31 15:21N 29°45' W 095°06'0 0.0
2014-Jul-31 08:33N 29°45' W 095°06'4 3.9
2014-Jul-31 07:33N 29°45' W 095°10'5 4.9
2014-Jul-31 06:33N 29°44' W 095°16'1 1.1
2014-Jul-31 05:33N 29°44' W 095°17'0 0.0
2014-Jul-31 04:28N 29°44' W 095°17'0 0.0
2014-Jul-31 03:31N 29°44' W 095°17'0 0.0
2014-Jul-31 02:31N 29°44' W 095°17'0 0.0
2014-Jul-31 01:31N 29°44' W 095°17'0 0.0
2014-Jul-31 00:31N 29°44' W 095°17'0 0.0
2014-Jul-30 23:31N 29°44' W 095°17'0 0.0
2014-Jul-30 22:31N 29°44' W 095°17'0 0.0
2014-Jul-30 21:31N 29°44' W 095°17'0 0.0
2014-Jul-30 20:31N 29°44' W 095°17'0 0.0
2014-Jul-30 19:31N 29°44' W 095°17'0 0.0
2014-Jul-30 18:31N 29°44' W 095°17'0 0.0
2014-Jul-30 17:28N 29°44' W 095°17'0 0.0
2014-Jul-30 16:31N 29°44' W 095°17'0 0.0
2014-Jul-30 15:31N 29°44' W 095°17'0 0.0
2014-Jul-30 14:31N 29°44' W 095°17'0 0.0
2014-Jul-30 13:31N 29°44' W 095°17'0 0.0
2014-Jul-30 12:31N 29°44' W 095°17'0 0.0
2014-Jul-30 11:31N 29°44' W 095°17'0 0.0
2014-Jul-30 10:28N 29°44' W 095°17'0 0.0
2014-Jul-30 09:31N 29°44' W 095°17'0 0.0
2014-Jul-30 08:31N 29°44' W 095°17'0 0.0
2014-Jul-30 07:31N 29°44' W 095°17'0 0.0
2014-Jul-30 06:28N 29°44' W 095°17'0 0.0
2014-Jul-30 05:31N 29°44' W 095°17'0 0.0
2014-Jul-30 04:28N 29°44' W 095°17'0 0.0
2014-Jul-30 03:31N 29°44' W 095°17'0 0.0
2014-Jul-30 02:31N 29°44' W 095°17'0 0.0
2014-Jul-30 01:28N 29°44' W 095°17'0 0.0
2014-Jul-30 00:31N 29°44' W 095°17'1 1.1
2014-Jul-29 23:33N 29°44' W 095°16'5 4.6
2014-Jul-29 22:33N 29°45' W 095°11'5 5.4
2014-Jul-29 21:33N 29°46' W 095°05'8 8.1
2014-Jul-29 20:33N 29°40' W 094°58'1211.6
2014-Jul-29 19:33N 29°30' W 094°52'1310.9
2014-Jul-29 18:20N 29°20' W 094°41'11 1.4
2014-Jul-29 10:22N 29°16' W 094°29'0 0.0
2014-Jul-29 09:31N 29°16' W 094°29'0 0.4
2014-Jul-29 08:33N 29°15' W 094°29'8 7.9
2014-Jul-29 07:33N 29°10' W 094°23'1212.2
2014-Jul-29 06:33N 29°03' W 094°11'  
2014-Jul-26 10:22N 25°33' W 079°49'810.1
2014-Jul-26 09:33N 25°40' W 079°46'1010.0
2014-Jul-26 08:33N 25°50' W 079°44'1010.0
2014-Jul-26 07:33N 25°60' W 079°41'1110.6
2014-Jul-26 06:33N 26°06' W 079°31'1212.1
2014-Jul-26 05:33N 26°13' W 079°20'1312.8
2014-Jul-26 04:33N 26°18' W 079°07'1413.9
2014-Jul-26 03:31N 26°14' W 078°51'  
Track history (hours):
 
Tides and Currents Weather Stations Pressure Air Temp Water Temp Dewpoint Dewpoint Depression Visibility Wind Speed Wind Dir Waves Ship Positions

Sichem Hawk

Last reported at 2014-Jul-31 15:21 UTC. Time now 2014-Jul-31 15:41 UTC.
Position N 29°45' W 095°06'.

Length 170 m; draft 9.5 m.

Type: Ship. MMSI: 249445000.

Date/timePositionNaut miles runAvg speedWind from/ knotsBaromVisibWave heightAir tempDewpointWater temp
2014-Jul-31 15:21N 29°45' W 095°06'0 0.0
2014-Jul-31 08:33N 29°45' W 095°06'4 3.9
2014-Jul-31 07:33N 29°45' W 095°10'5 4.9
2014-Jul-31 06:33N 29°44' W 095°16'1 1.1
2014-Jul-31 05:33N 29°44' W 095°17'0 0.0
2014-Jul-31 04:28N 29°44' W 095°17'0 0.0
2014-Jul-31 03:31N 29°44' W 095°17'0 0.0
2014-Jul-31 02:31N 29°44' W 095°17'0 0.0
2014-Jul-31 01:31N 29°44' W 095°17'0 0.0
2014-Jul-31 00:31N 29°44' W 095°17'0 0.0
2014-Jul-30 23:31N 29°44' W 095°17'0 0.0
2014-Jul-30 22:31N 29°44' W 095°17'0 0.0
2014-Jul-30 21:31N 29°44' W 095°17'0 0.0
2014-Jul-30 20:31N 29°44' W 095°17'0 0.0
2014-Jul-30 19:31N 29°44' W 095°17'0 0.0
2014-Jul-30 18:31N 29°44' W 095°17'0 0.0
2014-Jul-30 17:28N 29°44' W 095°17'0 0.0
2014-Jul-30 16:31N 29°44' W 095°17'0 0.0
2014-Jul-30 15:31N 29°44' W 095°17'0 0.0
2014-Jul-30 14:31N 29°44' W 095°17'0 0.0
2014-Jul-30 13:31N 29°44' W 095°17'0 0.0
2014-Jul-30 12:31N 29°44' W 095°17'0 0.0
2014-Jul-30 11:31N 29°44' W 095°17'0 0.0
2014-Jul-30 10:28N 29°44' W 095°17'0 0.0
2014-Jul-30 09:31N 29°44' W 095°17'0 0.0
2014-Jul-30 08:31N 29°44' W 095°17'0 0.0
2014-Jul-30 07:31N 29°44' W 095°17'0 0.0
2014-Jul-30 06:28N 29°44' W 095°17'0 0.0
2014-Jul-30 05:31N 29°44' W 095°17'0 0.0
2014-Jul-30 04:28N 29°44' W 095°17'0 0.0
2014-Jul-30 03:31N 29°44' W 095°17'0 0.0
2014-Jul-30 02:31N 29°44' W 095°17'0 0.0
2014-Jul-30 01:28N 29°44' W 095°17'0 0.0
2014-Jul-30 00:31N 29°44' W 095°17'1 1.1
2014-Jul-29 23:33N 29°44' W 095°16'5 4.6
2014-Jul-29 22:33N 29°45' W 095°11'5 5.4
2014-Jul-29 21:33N 29°46' W 095°05'8 8.1
2014-Jul-29 20:33N 29°40' W 094°58'1211.6
2014-Jul-29 19:33N 29°30' W 094°52'1310.9
2014-Jul-29 18:20N 29°20' W 094°41'11 1.4
2014-Jul-29 10:22N 29°16' W 094°29'0 0.0
2014-Jul-29 09:31N 29°16' W 094°29'0 0.4
2014-Jul-29 08:33N 29°15' W 094°29'8 7.9
2014-Jul-29 07:33N 29°10' W 094°23'1212.2
2014-Jul-29 06:33N 29°03' W 094°11'  
2014-Jul-26 10:22N 25°33' W 079°49'810.1
2014-Jul-26 09:33N 25°40' W 079°46'1010.0
2014-Jul-26 08:33N 25°50' W 079°44'1010.0
2014-Jul-26 07:33N 25°60' W 079°41'1110.6
2014-Jul-26 06:33N 26°06' W 079°31'1212.1
2014-Jul-26 05:33N 26°13' W 079°20'1312.8
2014-Jul-26 04:33N 26°18' W 079°07'1413.9
2014-Jul-26 03:31N 26°14' W 078°51'  

Dump ship's entire track history